Time;durP1;ratioP1;P1;durP2;ratioP2;P2;SDS_P1;SDS_P2;PMS_P1;PMS_P2;Temp;Humidity;BMP_temperature;BMP_pressure;BME280_temperature;BME280_humidity;BME280_pressure;Samples;Min_cycle;Max_cycle;Signal;HPM_P1;HPM_P2
2022/07/04 00:00:00;;;;;;;3.95;3.55;;;;;;;19.82;62.08398;95457.08;;;;
2022/07/04 00:01:00;;;;;;;3.95;3.55;;;;;;;19.82;62.08398;95457.08;;;;
2022/07/04 00:02:01;;;;;;;3.95;3.55;;;;;;;19.82;62.08398;95457.08;;;;
2022/07/04 00:03:01;;;;;;;3.95;3.55;;;;;;;19.82;62.08398;95457.08;;;;
2022/07/04 00:04:02;;;;;;;3.5;3.1;;;;;;;20.08;61.92188;95477.12;;;;
2022/07/04 00:05:03;;;;;;;3.5;3.1;;;;;;;20.08;61.92188;95477.12;;;;
2022/07/04 00:06:04;;;;;;;3.5;3.1;;;;;;;20.08;61.92188;95477.12;;;;
2022/07/04 00:07:05;;;;;;;3.5;3.1;;;;;;;20.08;61.92188;95477.12;;;;
2022/07/04 00:08:05;;;;;;;3.5;3.1;;;;;;;20.08;61.92188;95477.12;;;;
2022/07/04 00:09:06;;;;;;;3.5;3.1;;;;;;;20.08;61.92188;95477.12;;;;
2022/07/04 00:10:06;;;;;;;3.5;3.1;;;;;;;20.08;61.92188;95477.12;;;;
2022/07/04 00:11:09;;;;;;;3.5;3.1;;;;;;;20.08;61.92188;95477.12;;;;
2022/07/04 00:12:09;;;;;;;3.5;3.1;;;;;;;20.08;61.92188;95477.12;;;;
2022/07/04 00:13:10;;;;;;;3.5;3.1;;;;;;;20.08;61.92188;95477.12;;;;
2022/07/04 00:14:10;;;;;;;3.5;3.1;;;;;;;20.08;61.92188;95477.12;;;;
2022/07/04 00:15:11;;;;;;;3.5;3.1;;;;;;;20.08;61.92188;95477.12;;;;
2022/07/04 00:16:12;;;;;;;3.5;3.1;;;;;;;20.08;61.92188;95477.12;;;;
2022/07/04 00:17:12;;;;;;;3.5;3.1;;;;;;;20.08;61.92188;95477.12;;;;
2022/07/04 00:18:13;;;;;;;3.5;3.1;;;;;;;20.08;61.92188;95477.12;;;;
2022/07/04 00:19:13;;;;;;;3.5;3.1;;;;;;;20.08;61.92188;95477.12;;;;
2022/07/04 00:20:14;;;;;;;3.5;3.1;;;;;;;20.08;61.92188;95477.12;;;;
2022/07/04 00:21:14;;;;;;;3.5;3.1;;;;;;;20.08;61.92188;95477.12;;;;
2022/07/04 00:22:14;;;;;;;3.5;3.1;;;;;;;20.08;61.92188;95477.12;;;;
2022/07/04 00:23:15;;;;;;;3.5;3.1;;;;;;;20.08;61.92188;95477.12;;;;
2022/07/04 00:24:15;;;;;;;3.5;3.1;;;;;;;20.08;61.92188;95477.12;;;;
2022/07/04 00:25:16;;;;;;;3.5;3.1;;;;;;;20.08;61.92188;95477.12;;;;
2022/07/04 00:26:17;;;;;;;3.5;3.1;;;;;;;20.08;61.92188;95477.12;;;;
2022/07/04 00:27:18;;;;;;;3.5;3.1;;;;;;;20.08;61.92188;95477.12;;;;
2022/07/04 00:28:18;;;;;;;3.5;3.1;;;;;;;20.08;61.92188;95477.12;;;;
2022/07/04 00:29:19;;;;;;;3.5;3.1;;;;;;;20.08;61.92188;95477.12;;;;
2022/07/04 00:30:20;;;;;;;3.5;3.1;;;;;;;20.08;61.92188;95477.12;;;;
2022/07/04 00:31:20;;;;;;;3.5;3.1;;;;;;;20.08;61.92188;95477.12;;;;
2022/07/04 00:32:21;;;;;;;3.5;3.1;;;;;;;20.08;61.92188;95477.12;;;;
2022/07/04 00:33:21;;;;;;;3.5;3.1;;;;;;;20.08;61.92188;95477.12;;;;
2022/07/04 00:34:22;;;;;;;3.5;3.1;;;;;;;20.08;61.92188;95477.12;;;;
2022/07/04 00:35:22;;;;;;;3.5;3.1;;;;;;;20.08;61.92188;95477.12;;;;
2022/07/04 00:36:23;;;;;;;3.3;3;;;;;;;20.68;61.53027;95458.39;;;;
2022/07/04 00:37:23;;;;;;;3.3;3;;;;;;;20.68;61.53027;95458.39;;;;
2022/07/04 00:38:24;;;;;;;3.3;3;;;;;;;20.68;61.53027;95458.39;;;;
2022/07/04 00:39:25;;;;;;;3.3;3;;;;;;;20.68;61.53027;95458.39;;;;
2022/07/04 00:40:25;;;;;;;3.3;3;;;;;;;20.68;61.53027;95458.39;;;;
2022/07/04 00:41:26;;;;;;;3.3;3;;;;;;;20.68;61.53027;95458.39;;;;
2022/07/04 00:42:26;;;;;;;3.3;3;;;;;;;20.68;61.53027;95458.39;;;;
2022/07/04 00:43:27;;;;;;;3.3;3;;;;;;;20.68;61.53027;95458.39;;;;
2022/07/04 00:44:29;;;;;;;3.3;3;;;;;;;20.68;61.53027;95458.39;;;;
2022/07/04 00:45:30;;;;;;;3.3;3;;;;;;;20.68;61.53027;95458.39;;;;
2022/07/04 00:46:31;;;;;;;3.3;3;;;;;;;20.68;61.53027;95458.39;;;;
2022/07/04 00:47:32;;;;;;;2.8;2.6;;;;;;;20.85;61.30957;95436.58;;;;
2022/07/04 00:48:33;;;;;;;2.8;2.6;;;;;;;20.85;61.30957;95436.58;;;;
2022/07/04 00:49:33;;;;;;;2.8;2.6;;;;;;;20.85;61.30957;95436.58;;;;
2022/07/04 00:50:34;;;;;;;2.8;2.6;;;;;;;20.85;61.30957;95436.58;;;;
2022/07/04 00:51:35;;;;;;;2.8;2.6;;;;;;;20.85;61.30957;95436.58;;;;
2022/07/04 00:52:38;;;;;;;2.8;2.6;;;;;;;20.85;61.30957;95436.58;;;;
2022/07/04 00:53:39;;;;;;;2.8;2.6;;;;;;;20.85;61.30957;95436.58;;;;
2022/07/04 00:54:39;;;;;;;2.8;2.6;;;;;;;20.85;61.30957;95436.58;;;;
2022/07/04 00:55:40;;;;;;;2.8;2.6;;;;;;;20.85;61.30957;95436.58;;;;
2022/07/04 00:56:41;;;;;;;2.8;2.6;;;;;;;20.85;61.30957;95436.58;;;;
2022/07/04 00:57:44;;;;;;;3.1;2.750001;;;;;;;20.9;61.10645;95484.01;;;;
2022/07/04 00:58:44;;;;;;;3.1;2.750001;;;;;;;20.9;61.10645;95484.01;;;;
2022/07/04 00:59:44;;;;;;;3.1;2.750001;;;;;;;20.9;61.10645;95484.01;;;;
2022/07/04 01:00:45;;;;;;;3.1;2.750001;;;;;;;20.9;61.10645;95484.01;;;;
2022/07/04 01:01:46;;;;;;;3.1;2.750001;;;;;;;20.9;61.10645;95484.01;;;;
2022/07/04 01:02:46;;;;;;;3.1;2.750001;;;;;;;20.9;61.10645;95484.01;;;;
2022/07/04 01:03:47;;;;;;;3.1;2.750001;;;;;;;20.9;61.10645;95484.01;;;;
2022/07/04 01:04:48;;;;;;;3.1;2.750001;;;;;;;20.9;61.10645;95484.01;;;;
2022/07/04 01:05:48;;;;;;;3.1;2.750001;;;;;;;20.9;61.10645;95484.01;;;;
2022/07/04 01:06:49;;;;;;;3.1;2.750001;;;;;;;20.9;61.10645;95484.01;;;;
2022/07/04 01:07:50;;;;;;;3.1;2.750001;;;;;;;20.9;61.10645;95484.01;;;;
2022/07/04 01:08:50;;;;;;;3.1;2.55;;;;;;;20.94;61.2002;95488.72;;;;
2022/07/04 01:09:51;;;;;;;3.1;2.55;;;;;;;20.94;61.2002;95488.72;;;;
2022/07/04 01:10:52;;;;;;;3.1;2.55;;;;;;;20.94;61.2002;95488.72;;;;
2022/07/04 01:11:53;;;;;;;3.1;2.55;;;;;;;20.94;61.2002;95488.72;;;;
2022/07/04 01:12:54;;;;;;;3.1;2.55;;;;;;;20.94;61.2002;95488.72;;;;
2022/07/04 01:13:55;;;;;;;3.1;2.55;;;;;;;20.94;61.2002;95488.72;;;;
2022/07/04 01:14:56;;;;;;;3.1;2.55;;;;;;;20.94;61.2002;95488.72;;;;
2022/07/04 01:15:56;;;;;;;3.1;2.55;;;;;;;20.94;61.2002;95488.72;;;;
2022/07/04 01:16:57;;;;;;;3.1;2.55;;;;;;;20.94;61.2002;95488.72;;;;
2022/07/04 01:17:58;;;;;;;3.1;2.55;;;;;;;20.94;61.2002;95488.72;;;;
2022/07/04 01:18:58;;;;;;;3.3;2.5;;;;;;;20.91;61.03027;95465.48;;;;
2022/07/04 01:19:59;;;;;;;3.3;2.5;;;;;;;20.91;61.03027;95465.48;;;;
2022/07/04 01:20:59;;;;;;;3.3;2.5;;;;;;;20.91;61.03027;95465.48;;;;
2022/07/04 01:22:00;;;;;;;3.3;2.5;;;;;;;20.91;61.03027;95465.48;;;;
2022/07/04 01:23:05;;;;;;;3.3;2.5;;;;;;;20.91;61.03027;95465.48;;;;
2022/07/04 01:24:06;;;;;;;3.3;2.5;;;;;;;20.91;61.03027;95465.48;;;;
2022/07/04 01:25:07;;;;;;;3.3;2.5;;;;;;;20.91;61.03027;95465.48;;;;
2022/07/04 01:26:07;;;;;;;3.3;2.5;;;;;;;20.91;61.03027;95465.48;;;;
2022/07/04 01:27:08;;;;;;;3.3;2.5;;;;;;;20.91;61.03027;95465.48;;;;
2022/07/04 01:28:09;;;;;;;3.3;2.5;;;;;;;20.91;61.03027;95465.48;;;;
2022/07/04 01:29:10;;;;;;;3.3;2.5;;;;;;;20.91;61.03027;95465.48;;;;
2022/07/04 01:30:10;;;;;;;2.9;2.7;;;;;;;20.93;61.12109;95463.31;;;;
2022/07/04 01:31:11;;;;;;;2.9;2.7;;;;;;;20.93;61.12109;95463.31;;;;
2022/07/04 01:32:11;;;;;;;2.9;2.7;;;;;;;20.93;61.12109;95463.31;;;;
2022/07/04 01:33:12;;;;;;;2.9;2.7;;;;;;;20.93;61.12109;95463.31;;;;
2022/07/04 01:34:13;;;;;;;2.9;2.7;;;;;;;20.93;61.12109;95463.31;;;;
2022/07/04 01:35:14;;;;;;;2.9;2.7;;;;;;;20.93;61.12109;95463.31;;;;
2022/07/04 01:36:15;;;;;;;2.9;2.7;;;;;;;20.93;61.12109;95463.31;;;;
2022/07/04 01:37:15;;;;;;;2.9;2.7;;;;;;;20.93;61.12109;95463.31;;;;
2022/07/04 01:38:16;;;;;;;2.9;2.7;;;;;;;20.93;61.12109;95463.31;;;;
2022/07/04 01:39:16;;;;;;;2.9;2.7;;;;;;;20.93;61.12109;95463.31;;;;
2022/07/04 01:40:17;;;;;;;4.8;2.7;;;;;;;20.97;61.07129;95450.16;;;;
2022/07/04 01:41:18;;;;;;;4.8;2.7;;;;;;;20.97;61.07129;95450.16;;;;
2022/07/04 01:42:18;;;;;;;4.8;2.7;;;;;;;20.97;61.07129;95450.16;;;;
2022/07/04 01:43:19;;;;;;;4.8;2.7;;;;;;;20.97;61.07129;95450.16;;;;
2022/07/04 01:44:19;;;;;;;4.8;2.7;;;;;;;20.97;61.07129;95450.16;;;;
2022/07/04 01:45:20;;;;;;;4.8;2.7;;;;;;;20.97;61.07129;95450.16;;;;
2022/07/04 01:46:20;;;;;;;4.8;2.7;;;;;;;20.97;61.07129;95450.16;;;;
2022/07/04 01:47:22;;;;;;;4.8;2.7;;;;;;;20.97;61.07129;95450.16;;;;
2022/07/04 01:48:22;;;;;;;4.8;2.7;;;;;;;20.97;61.07129;95450.16;;;;
2022/07/04 01:49:23;;;;;;;4.8;2.7;;;;;;;20.97;61.07129;95450.16;;;;
2022/07/04 01:50:23;;;;;;;4.8;2.7;;;;;;;20.97;61.07129;95450.16;;;;
2022/07/04 01:51:24;;;;;;;3.6;2.4;;;;;;;21.13;61.02832;95436.83;;;;
2022/07/04 01:52:25;;;;;;;3.6;2.4;;;;;;;21.13;61.02832;95436.83;;;;
2022/07/04 01:53:26;;;;;;;3.6;2.4;;;;;;;21.13;61.02832;95436.83;;;;
2022/07/04 01:54:26;;;;;;;3.6;2.4;;;;;;;21.13;61.02832;95436.83;;;;
2022/07/04 01:55:27;;;;;;;3.6;2.4;;;;;;;21.13;61.02832;95436.83;;;;
2022/07/04 01:56:29;;;;;;;3.6;2.4;;;;;;;21.13;61.02832;95436.83;;;;
2022/07/04 01:57:30;;;;;;;3.6;2.4;;;;;;;21.13;61.02832;95436.83;;;;
2022/07/04 01:58:30;;;;;;;3.6;2.4;;;;;;;21.13;61.02832;95436.83;;;;
2022/07/04 02:01:29;;;;;;;3.6;2.4;;;;;;;21.13;61.02832;95436.83;;;;
2022/07/04 02:02:29;;;;;;;2.7;2.5;;;;;;;21.18;60.91309;95401.45;;;;
2022/07/04 02:03:30;;;;;;;2.7;2.5;;;;;;;21.18;60.91309;95401.45;;;;
2022/07/04 02:04:31;;;;;;;2.7;2.5;;;;;;;21.18;60.91309;95401.45;;;;
2022/07/04 02:05:33;;;;;;;2.7;2.5;;;;;;;21.18;60.91309;95401.45;;;;
2022/07/04 02:06:33;;;;;;;2.7;2.5;;;;;;;21.18;60.91309;95401.45;;;;
2022/07/04 02:07:35;;;;;;;2.7;2.5;;;;;;;21.18;60.91309;95401.45;;;;
2022/07/04 02:09:40;;;;;;;2.7;2.5;;;;;;;21.18;60.91309;95401.45;;;;
2022/07/04 02:10:41;;;;;;;2.7;2.5;;;;;;;21.18;60.91309;95401.45;;;;
2022/07/04 02:16:53;;;;;;;3.1;2.5;;;;;;;21.23;60.96387;95394.3;;;;
2022/07/04 02:17:53;;;;;;;3.1;2.5;;;;;;;21.23;60.96387;95394.3;;;;
2022/07/04 02:18:54;;;;;;;3.1;2.5;;;;;;;21.23;60.96387;95394.3;;;;
2022/07/04 02:19:54;;;;;;;3.1;2.5;;;;;;;21.23;60.96387;95394.3;;;;
2022/07/04 02:20:55;;;;;;;3.1;2.5;;;;;;;21.23;60.96387;95394.3;;;;
2022/07/04 02:21:55;;;;;;;3.1;2.5;;;;;;;21.23;60.96387;95394.3;;;;
2022/07/04 02:22:56;;;;;;;2.95;2.6;;;;;;;21.12;61.04883;95406.59;;;;
2022/07/04 02:23:56;;;;;;;2.95;2.6;;;;;;;21.12;61.04883;95406.59;;;;
2022/07/04 02:24:57;;;;;;;2.95;2.6;;;;;;;21.12;61.04883;95406.59;;;;
2022/07/04 02:25:58;;;;;;;2.95;2.6;;;;;;;21.12;61.04883;95406.59;;;;
2022/07/04 02:26:58;;;;;;;2.95;2.6;;;;;;;21.12;61.04883;95406.59;;;;
2022/07/04 02:27:59;;;;;;;2.95;2.6;;;;;;;21.12;61.04883;95406.59;;;;
2022/07/04 02:29:00;;;;;;;2.95;2.6;;;;;;;21.12;61.04883;95406.59;;;;
2022/07/04 02:30:00;;;;;;;2.95;2.6;;;;;;;21.12;61.04883;95406.59;;;;
2022/07/04 02:31:01;;;;;;;2.95;2.6;;;;;;;21.12;61.04883;95406.59;;;;
2022/07/04 02:32:01;;;;;;;2.95;2.6;;;;;;;21.12;61.04883;95406.59;;;;
2022/07/04 02:33:03;;;;;;;2.95;2.6;;;;;;;21.12;61.04883;95406.59;;;;
2022/07/04 02:34:03;;;;;;;3;2.7;;;;;;;21.03;61.20117;95404.71;;;;
2022/07/04 02:35:04;;;;;;;3;2.7;;;;;;;21.03;61.20117;95404.71;;;;
2022/07/04 02:36:05;;;;;;;3;2.7;;;;;;;21.03;61.20117;95404.71;;;;
2022/07/04 02:37:06;;;;;;;3;2.7;;;;;;;21.03;61.20117;95404.71;;;;
2022/07/04 02:38:06;;;;;;;3;2.7;;;;;;;21.03;61.20117;95404.71;;;;
2022/07/04 02:39:07;;;;;;;3;2.7;;;;;;;21.03;61.20117;95404.71;;;;
2022/07/04 02:40:07;;;;;;;3;2.7;;;;;;;21.03;61.20117;95404.71;;;;
2022/07/04 02:41:09;;;;;;;3;2.7;;;;;;;21.03;61.20117;95404.71;;;;
2022/07/04 02:42:09;;;;;;;3;2.7;;;;;;;21.03;61.20117;95404.71;;;;
2022/07/04 02:43:10;;;;;;;3;2.7;;;;;;;21.03;61.20117;95404.71;;;;
2022/07/04 02:44:10;;;;;;;2.9;2.7;;;;;;;20.85;61.45313;95414.54;;;;
2022/07/04 02:45:12;;;;;;;2.9;2.7;;;;;;;20.85;61.45313;95414.54;;;;
2022/07/04 02:46:12;;;;;;;2.9;2.7;;;;;;;20.85;61.45313;95414.54;;;;
2022/07/04 02:47:13;;;;;;;2.9;2.7;;;;;;;20.85;61.45313;95414.54;;;;
2022/07/04 02:48:13;;;;;;;2.9;2.7;;;;;;;20.85;61.45313;95414.54;;;;
2022/07/04 02:49:14;;;;;;;2.9;2.7;;;;;;;20.85;61.45313;95414.54;;;;
2022/07/04 02:50:14;;;;;;;2.9;2.7;;;;;;;20.85;61.45313;95414.54;;;;
2022/07/04 02:51:15;;;;;;;2.9;2.7;;;;;;;20.85;61.45313;95414.54;;;;
2022/07/04 02:52:15;;;;;;;2.9;2.7;;;;;;;20.85;61.45313;95414.54;;;;
2022/07/04 02:53:16;;;;;;;2.9;2.7;;;;;;;20.85;61.45313;95414.54;;;;
2022/07/04 02:54:16;;;;;;;2.9;2.7;;;;;;;20.85;61.45313;95414.54;;;;
2022/07/04 02:55:17;;;;;;;3.15;2.6;;;;;;;20.65;61.72461;95437.41;;;;
2022/07/04 02:56:17;;;;;;;3.15;2.6;;;;;;;20.65;61.72461;95437.41;;;;
2022/07/04 02:57:18;;;;;;;3.15;2.6;;;;;;;20.65;61.72461;95437.41;;;;
2022/07/04 02:58:18;;;;;;;3.15;2.6;;;;;;;20.65;61.72461;95437.41;;;;
2022/07/04 02:59:19;;;;;;;3.15;2.6;;;;;;;20.65;61.72461;95437.41;;;;
2022/07/04 03:00:19;;;;;;;3.15;2.6;;;;;;;20.65;61.72461;95437.41;;;;
2022/07/04 03:01:20;;;;;;;3.15;2.6;;;;;;;20.65;61.72461;95437.41;;;;
2022/07/04 03:02:20;;;;;;;3.15;2.6;;;;;;;20.65;61.72461;95437.41;;;;
2022/07/04 03:03:21;;;;;;;3.15;2.6;;;;;;;20.65;61.72461;95437.41;;;;
2022/07/04 03:04:22;;;;;;;3.15;2.6;;;;;;;20.65;61.72461;95437.41;;;;
2022/07/04 03:05:22;;;;;;;3;2.7;;;;;;;20.27;62.21289;95443.34;;;;
2022/07/04 03:06:23;;;;;;;3;2.7;;;;;;;20.27;62.21289;95443.34;;;;
2022/07/04 03:07:24;;;;;;;3;2.7;;;;;;;20.27;62.21289;95443.34;;;;
2022/07/04 03:08:24;;;;;;;3;2.7;;;;;;;20.27;62.21289;95443.34;;;;
2022/07/04 03:09:26;;;;;;;3;2.7;;;;;;;20.27;62.21289;95443.34;;;;
2022/07/04 03:10:27;;;;;;;3;2.7;;;;;;;20.27;62.21289;95443.34;;;;
2022/07/04 03:11:27;;;;;;;3;2.7;;;;;;;20.27;62.21289;95443.34;;;;
2022/07/04 03:12:28;;;;;;;3;2.7;;;;;;;20.27;62.21289;95443.34;;;;
2022/07/04 03:13:28;;;;;;;3;2.7;;;;;;;20.27;62.21289;95443.34;;;;
2022/07/04 03:14:29;;;;;;;3;2.7;;;;;;;20.27;62.21289;95443.34;;;;
2022/07/04 03:15:29;;;;;;;3;2.7;;;;;;;20.27;62.21289;95443.34;;;;
2022/07/04 03:16:30;;;;;;;3.05;2.8;;;;;;;19.93;62.84863;95452.53;;;;
2022/07/04 03:17:30;;;;;;;3.05;2.8;;;;;;;19.93;62.84863;95452.53;;;;
2022/07/04 03:18:31;;;;;;;3.05;2.8;;;;;;;19.93;62.84863;95452.53;;;;
2022/07/04 03:19:32;;;;;;;3.05;2.8;;;;;;;19.93;62.84863;95452.53;;;;
2022/07/04 03:20:32;;;;;;;3.05;2.8;;;;;;;19.93;62.84863;95452.53;;;;
2022/07/04 03:21:32;;;;;;;3.05;2.8;;;;;;;19.93;62.84863;95452.53;;;;
2022/07/04 03:22:33;;;;;;;3.05;2.8;;;;;;;19.93;62.84863;95452.53;;;;
2022/07/04 03:23:34;;;;;;;3.05;2.8;;;;;;;19.93;62.84863;95452.53;;;;
2022/07/04 03:24:34;;;;;;;3.05;2.8;;;;;;;19.93;62.84863;95452.53;;;;
2022/07/04 03:25:35;;;;;;;3.05;2.8;;;;;;;19.93;62.84863;95452.53;;;;
2022/07/04 03:26:35;;;;;;;3.05;2.8;;;;;;;19.93;62.84863;95452.53;;;;
2022/07/04 03:27:36;;;;;;;3.35;3.1;;;;;;;19.58;63.46094;95451.51;;;;
2022/07/04 03:28:36;;;;;;;3.35;3.1;;;;;;;19.58;63.46094;95451.51;;;;
2022/07/04 03:29:36;;;;;;;3.35;3.1;;;;;;;19.58;63.46094;95451.51;;;;
2022/07/04 03:30:37;;;;;;;3.35;3.1;;;;;;;19.58;63.46094;95451.51;;;;
2022/07/04 03:31:37;;;;;;;3.35;3.1;;;;;;;19.58;63.46094;95451.51;;;;
2022/07/04 03:32:38;;;;;;;3.35;3.1;;;;;;;19.58;63.46094;95451.51;;;;
2022/07/04 03:33:38;;;;;;;3.35;3.1;;;;;;;19.58;63.46094;95451.51;;;;
2022/07/04 03:34:39;;;;;;;3.35;3.1;;;;;;;19.58;63.46094;95451.51;;;;
2022/07/04 03:35:39;;;;;;;3.35;3.1;;;;;;;19.58;63.46094;95451.51;;;;
2022/07/04 03:36:40;;;;;;;3.35;3.1;;;;;;;19.58;63.46094;95451.51;;;;
2022/07/04 03:37:41;;;;;;;3.55;3.1;;;;;;;19.32;64.12891;95471.25;;;;
2022/07/04 03:38:41;;;;;;;3.55;3.1;;;;;;;19.32;64.12891;95471.25;;;;
2022/07/04 03:39:42;;;;;;;3.55;3.1;;;;;;;19.32;64.12891;95471.25;;;;
2022/07/04 03:40:43;;;;;;;3.55;3.1;;;;;;;19.32;64.12891;95471.25;;;;
2022/07/04 03:41:43;;;;;;;3.55;3.1;;;;;;;19.32;64.12891;95471.25;;;;
2022/07/04 03:42:44;;;;;;;3.55;3.1;;;;;;;19.32;64.12891;95471.25;;;;
2022/07/04 03:43:45;;;;;;;3.55;3.1;;;;;;;19.32;64.12891;95471.25;;;;
2022/07/04 03:44:45;;;;;;;3.55;3.1;;;;;;;19.32;64.12891;95471.25;;;;
2022/07/04 03:45:45;;;;;;;3.55;3.1;;;;;;;19.32;64.12891;95471.25;;;;
2022/07/04 03:46:46;;;;;;;3.55;3.1;;;;;;;19.32;64.12891;95471.25;;;;
2022/07/04 03:47:46;;;;;;;3.55;3.1;;;;;;;19.32;64.12891;95471.25;;;;
2022/07/04 03:48:47;;;;;;;3.4;3.1;;;;;;;19.23;64.58984;95468.74;;;;
2022/07/04 03:49:47;;;;;;;3.4;3.1;;;;;;;19.23;64.58984;95468.74;;;;
2022/07/04 03:50:48;;;;;;;3.4;3.1;;;;;;;19.23;64.58984;95468.74;;;;
2022/07/04 03:51:49;;;;;;;3.4;3.1;;;;;;;19.23;64.58984;95468.74;;;;
2022/07/04 03:52:49;;;;;;;3.4;3.1;;;;;;;19.23;64.58984;95468.74;;;;
2022/07/04 03:53:50;;;;;;;3.4;3.1;;;;;;;19.23;64.58984;95468.74;;;;
2022/07/04 03:54:51;;;;;;;3.4;3.1;;;;;;;19.23;64.58984;95468.74;;;;
2022/07/04 03:55:51;;;;;;;3.4;3.1;;;;;;;19.23;64.58984;95468.74;;;;
2022/07/04 03:56:51;;;;;;;3.4;3.1;;;;;;;19.23;64.58984;95468.74;;;;
2022/07/04 03:57:52;;;;;;;3.4;3.1;;;;;;;19.23;64.58984;95468.74;;;;
2022/07/04 03:58:52;;;;;;;3.25;2.95;;;;;;;19.34;64.90137;95496.86;;;;
2022/07/04 03:59:53;;;;;;;3.25;2.95;;;;;;;19.34;64.90137;95496.86;;;;
2022/07/04 04:00:53;;;;;;;3.25;2.95;;;;;;;19.34;64.90137;95496.86;;;;
2022/07/04 04:01:54;;;;;;;3.25;2.95;;;;;;;19.34;64.90137;95496.86;;;;
2022/07/04 04:02:54;;;;;;;3.25;2.95;;;;;;;19.34;64.90137;95496.86;;;;
2022/07/04 04:09:06;;;;;;;3.25;2.95;;;;;;;19.34;64.90137;95496.86;;;;
2022/07/04 04:10:06;;;;;;;3.35;3.05;;;;;;;19.38;65.2041;95520.73;;;;
2022/07/04 04:11:08;;;;;;;3.35;3.05;;;;;;;19.38;65.2041;95520.73;;;;
2022/07/04 04:12:08;;;;;;;3.35;3.05;;;;;;;19.38;65.2041;95520.73;;;;
2022/07/04 04:13:09;;;;;;;3.35;3.05;;;;;;;19.38;65.2041;95520.73;;;;
2022/07/04 04:14:10;;;;;;;3.35;3.05;;;;;;;19.38;65.2041;95520.73;;;;
2022/07/04 04:15:10;;;;;;;3.35;3.05;;;;;;;19.38;65.2041;95520.73;;;;
2022/07/04 04:16:10;;;;;;;3.35;3.05;;;;;;;19.38;65.2041;95520.73;;;;
2022/07/04 04:17:11;;;;;;;3.35;3.05;;;;;;;19.38;65.2041;95520.73;;;;
2022/07/04 04:18:11;;;;;;;3.35;3.05;;;;;;;19.38;65.2041;95520.73;;;;
2022/07/04 04:19:12;;;;;;;3.35;3.05;;;;;;;19.38;65.2041;95520.73;;;;
2022/07/04 04:20:12;;;;;;;3.05;2.85;;;;;;;19.56;65.39746;95539.06;;;;
2022/07/04 04:21:13;;;;;;;3.05;2.85;;;;;;;19.56;65.39746;95539.06;;;;
2022/07/04 04:22:13;;;;;;;3.05;2.85;;;;;;;19.56;65.39746;95539.06;;;;
2022/07/04 04:23:14;;;;;;;3.05;2.85;;;;;;;19.56;65.39746;95539.06;;;;
2022/07/04 04:24:14;;;;;;;3.05;2.85;;;;;;;19.56;65.39746;95539.06;;;;
2022/07/04 04:25:15;;;;;;;3.05;2.85;;;;;;;19.56;65.39746;95539.06;;;;
2022/07/04 04:26:17;;;;;;;3.05;2.85;;;;;;;19.56;65.39746;95539.06;;;;
2022/07/04 04:27:17;;;;;;;3.05;2.85;;;;;;;19.56;65.39746;95539.06;;;;
2022/07/04 04:28:18;;;;;;;3.05;2.85;;;;;;;19.56;65.39746;95539.06;;;;
2022/07/04 04:29:18;;;;;;;3.05;2.85;;;;;;;19.56;65.39746;95539.06;;;;
2022/07/04 04:30:19;;;;;;;3.05;2.85;;;;;;;19.56;65.39746;95539.06;;;;
2022/07/04 04:31:19;;;;;;;4.199999;3.8;;;;;;;19.77;65.47168;95535.39;;;;
2022/07/04 04:32:20;;;;;;;4.199999;3.8;;;;;;;19.77;65.47168;95535.39;;;;
2022/07/04 04:33:20;;;;;;;4.199999;3.8;;;;;;;19.77;65.47168;95535.39;;;;
2022/07/04 04:34:21;;;;;;;4.199999;3.8;;;;;;;19.77;65.47168;95535.39;;;;
2022/07/04 04:35:21;;;;;;;4.199999;3.8;;;;;;;19.77;65.47168;95535.39;;;;
2022/07/04 04:36:22;;;;;;;4.199999;3.8;;;;;;;19.77;65.47168;95535.39;;;;
2022/07/04 04:37:22;;;;;;;4.199999;3.8;;;;;;;19.77;65.47168;95535.39;;;;
2022/07/04 04:38:23;;;;;;;4.199999;3.8;;;;;;;19.77;65.47168;95535.39;;;;
2022/07/04 04:39:23;;;;;;;4.199999;3.8;;;;;;;19.77;65.47168;95535.39;;;;
2022/07/04 04:40:24;;;;;;;4.199999;3.8;;;;;;;19.77;65.47168;95535.39;;;;
2022/07/04 04:41:25;;;;;;;4.2;3.8;;;;;;;20.17;65.43164;95539.98;;;;
2022/07/04 04:42:26;;;;;;;4.2;3.8;;;;;;;20.17;65.43164;95539.98;;;;
2022/07/04 04:43:26;;;;;;;4.2;3.8;;;;;;;20.17;65.43164;95539.98;;;;
2022/07/04 04:44:27;;;;;;;4.2;3.8;;;;;;;20.17;65.43164;95539.98;;;;
2022/07/04 04:45:27;;;;;;;4.2;3.8;;;;;;;20.17;65.43164;95539.98;;;;
2022/07/04 04:46:27;;;;;;;4.2;3.8;;;;;;;20.17;65.43164;95539.98;;;;
2022/07/04 04:47:28;;;;;;;4.2;3.8;;;;;;;20.17;65.43164;95539.98;;;;
2022/07/04 04:48:28;;;;;;;4.2;3.8;;;;;;;20.17;65.43164;95539.98;;;;
2022/07/04 04:49:29;;;;;;;4.2;3.8;;;;;;;20.17;65.43164;95539.98;;;;
2022/07/04 04:50:29;;;;;;;4.2;3.8;;;;;;;20.17;65.43164;95539.98;;;;
2022/07/04 04:51:30;;;;;;;4.2;3.8;;;;;;;20.17;65.43164;95539.98;;;;
2022/07/04 04:52:31;;;;;;;4.900001;3.400001;;;;;;;20.61;65.35352;95554.97;;;;
2022/07/04 04:53:31;;;;;;;4.900001;3.400001;;;;;;;20.61;65.35352;95554.97;;;;
2022/07/04 04:54:32;;;;;;;4.900001;3.400001;;;;;;;20.61;65.35352;95554.97;;;;
2022/07/04 04:55:33;;;;;;;4.900001;3.400001;;;;;;;20.61;65.35352;95554.97;;;;
2022/07/04 04:56:33;;;;;;;4.900001;3.400001;;;;;;;20.61;65.35352;95554.97;;;;
2022/07/04 04:57:34;;;;;;;4.900001;3.400001;;;;;;;20.61;65.35352;95554.97;;;;
2022/07/04 04:58:35;;;;;;;4.900001;3.400001;;;;;;;20.61;65.35352;95554.97;;;;
2022/07/04 04:59:35;;;;;;;4.900001;3.400001;;;;;;;20.61;65.35352;95554.97;;;;
2022/07/04 05:00:36;;;;;;;4.900001;3.400001;;;;;;;20.61;65.35352;95554.97;;;;
2022/07/04 05:01:37;;;;;;;4.900001;3.400001;;;;;;;20.61;65.35352;95554.97;;;;
2022/07/04 05:02:37;;;;;;;4.900001;3.400001;;;;;;;20.61;65.35352;95554.97;;;;
2022/07/04 05:03:38;;;;;;;3.6;3.1;;;;;;;21.06;65.00977;95574.76;;;;
2022/07/04 05:04:38;;;;;;;3.6;3.1;;;;;;;21.06;65.00977;95574.76;;;;
2022/07/04 05:05:38;;;;;;;3.6;3.1;;;;;;;21.06;65.00977;95574.76;;;;
2022/07/04 05:06:39;;;;;;;3.6;3.1;;;;;;;21.06;65.00977;95574.76;;;;
2022/07/04 05:07:40;;;;;;;3.6;3.1;;;;;;;21.06;65.00977;95574.76;;;;
2022/07/04 05:08:40;;;;;;;3.6;3.1;;;;;;;21.06;65.00977;95574.76;;;;
2022/07/04 05:09:41;;;;;;;3.6;3.1;;;;;;;21.06;65.00977;95574.76;;;;
2022/07/04 05:10:41;;;;;;;3.6;3.1;;;;;;;21.06;65.00977;95574.76;;;;
2022/07/04 05:11:42;;;;;;;3.6;3.1;;;;;;;21.06;65.00977;95574.76;;;;
2022/07/04 05:12:43;;;;;;;3.6;3.1;;;;;;;21.06;65.00977;95574.76;;;;
2022/07/04 05:13:43;;;;;;;3.2;2.9;;;;;;;21.35;64.91895;95609.58;;;;
2022/07/04 05:14:44;;;;;;;3.2;2.9;;;;;;;21.35;64.91895;95609.58;;;;
2022/07/04 05:15:44;;;;;;;3.2;2.9;;;;;;;21.35;64.91895;95609.58;;;;
2022/07/04 05:16:45;;;;;;;3.2;2.9;;;;;;;21.35;64.91895;95609.58;;;;
2022/07/04 05:17:45;;;;;;;3.2;2.9;;;;;;;21.35;64.91895;95609.58;;;;
2022/07/04 05:18:46;;;;;;;3.2;2.9;;;;;;;21.35;64.91895;95609.58;;;;
2022/07/04 05:19:48;;;;;;;3.2;2.9;;;;;;;21.35;64.91895;95609.58;;;;
2022/07/04 05:20:48;;;;;;;3.2;2.9;;;;;;;21.35;64.91895;95609.58;;;;
2022/07/04 05:21:49;;;;;;;3.2;2.9;;;;;;;21.35;64.91895;95609.58;;;;
2022/07/04 05:22:49;;;;;;;3.2;2.9;;;;;;;21.35;64.91895;95609.58;;;;
2022/07/04 05:23:50;;;;;;;3.2;2.9;;;;;;;21.35;64.91895;95609.58;;;;
2022/07/04 05:24:50;;;;;;;3.7;3.2;;;;;;;21.22;65.12109;95618.98;;;;
2022/07/04 05:25:51;;;;;;;3.7;3.2;;;;;;;21.22;65.12109;95618.98;;;;
2022/07/04 05:26:51;;;;;;;3.7;3.2;;;;;;;21.22;65.12109;95618.98;;;;
2022/07/04 05:27:52;;;;;;;3.7;3.2;;;;;;;21.22;65.12109;95618.98;;;;
2022/07/04 05:28:52;;;;;;;3.7;3.2;;;;;;;21.22;65.12109;95618.98;;;;
2022/07/04 05:29:53;;;;;;;3.7;3.2;;;;;;;21.22;65.12109;95618.98;;;;
2022/07/04 05:30:53;;;;;;;3.7;3.2;;;;;;;21.22;65.12109;95618.98;;;;
2022/07/04 05:31:54;;;;;;;3.7;3.2;;;;;;;21.22;65.12109;95618.98;;;;
2022/07/04 05:32:54;;;;;;;3.7;3.2;;;;;;;21.22;65.12109;95618.98;;;;
2022/07/04 05:33:55;;;;;;;3.7;3.2;;;;;;;21.22;65.12109;95618.98;;;;
2022/07/04 05:34:56;;;;;;;4.05;3.2;;;;;;;21.07;65.57422;95607.84;;;;
2022/07/04 05:35:56;;;;;;;4.05;3.2;;;;;;;21.07;65.57422;95607.84;;;;
2022/07/04 05:36:57;;;;;;;4.05;3.2;;;;;;;21.07;65.57422;95607.84;;;;
2022/07/04 05:37:57;;;;;;;4.05;3.2;;;;;;;21.07;65.57422;95607.84;;;;
2022/07/04 05:38:58;;;;;;;4.05;3.2;;;;;;;21.07;65.57422;95607.84;;;;
2022/07/04 05:39:58;;;;;;;4.05;3.2;;;;;;;21.07;65.57422;95607.84;;;;
2022/07/04 05:40:59;;;;;;;4.05;3.2;;;;;;;21.07;65.57422;95607.84;;;;
2022/07/04 05:41:59;;;;;;;4.05;3.2;;;;;;;21.07;65.57422;95607.84;;;;
2022/07/04 05:43:00;;;;;;;4.05;3.2;;;;;;;21.07;65.57422;95607.84;;;;
2022/07/04 05:44:00;;;;;;;4.05;3.2;;;;;;;21.07;65.57422;95607.84;;;;
2022/07/04 05:45:01;;;;;;;4.05;3.2;;;;;;;21.07;65.57422;95607.84;;;;
2022/07/04 05:46:01;;;;;;;4.05;3.2;;;;;;;21.07;65.57422;95607.84;;;;
2022/07/04 05:47:02;;;;;;;4.05;3.2;;;;;;;21.07;65.57422;95607.84;;;;
2022/07/04 05:48:03;;;;;;;4.05;3.2;;;;;;;21.07;65.57422;95607.84;;;;
2022/07/04 05:49:04;;;;;;;4.05;3.2;;;;;;;21.07;65.57422;95607.84;;;;
2022/07/04 05:50:04;;;;;;;4.05;3.2;;;;;;;21.07;65.57422;95607.84;;;;
2022/07/04 05:51:06;;;;;;;4.05;3.2;;;;;;;21.07;65.57422;95607.84;;;;
2022/07/04 05:52:06;;;;;;;4.05;3.2;;;;;;;21.07;65.57422;95607.84;;;;
2022/07/04 05:53:07;;;;;;;4.05;3.2;;;;;;;21.07;65.57422;95607.84;;;;
2022/07/04 05:54:07;;;;;;;4.05;3.2;;;;;;;21.07;65.57422;95607.84;;;;
2022/07/04 05:55:08;;;;;;;4.05;3.2;;;;;;;21.07;65.57422;95607.84;;;;
2022/07/04 05:56:09;;;;;;;3.55;2.9;;;;;;;21.31;65.84277;95629.47;;;;
2022/07/04 05:57:10;;;;;;;3.55;2.9;;;;;;;21.31;65.84277;95629.47;;;;
2022/07/04 05:58:10;;;;;;;3.55;2.9;;;;;;;21.31;65.84277;95629.47;;;;
2022/07/04 05:59:11;;;;;;;3.55;2.9;;;;;;;21.31;65.84277;95629.47;;;;
2022/07/04 06:00:11;;;;;;;3.55;2.9;;;;;;;21.31;65.84277;95629.47;;;;
2022/07/04 06:01:12;;;;;;;3.55;2.9;;;;;;;21.31;65.84277;95629.47;;;;